createdAt,value
2022-08-01T00:00:33.813Z,41.73
2022-08-01T00:01:33.814Z,42.54
2022-08-01T00:02:33.795Z,43.18
2022-08-01T00:03:33.792Z,42.54
2022-08-01T00:04:33.777Z,43.02
2022-08-01T00:05:33.811Z,42.86
2022-08-01T00:06:33.786Z,42.06
2022-08-01T00:07:33.768Z,43.02
2022-08-01T00:08:33.756Z,42.54
2022-08-01T00:09:33.748Z,43.51
2022-08-01T00:10:33.759Z,42.54
2022-08-01T00:11:33.764Z,43.34
2022-08-01T00:12:33.737Z,43.67
2022-08-01T00:13:33.749Z,41.89
2022-08-01T00:14:33.712Z,42.06
2022-08-01T00:15:33.742Z,42.70
2022-08-01T00:16:33.720Z,43.18
2022-08-01T00:17:33.698Z,42.54
2022-08-01T00:18:33.702Z,42.86
2022-08-01T00:19:33.688Z,43.51
2022-08-01T00:20:33.678Z,42.06
2022-08-01T00:21:33.694Z,43.51
2022-08-01T00:22:33.683Z,45.12
2022-08-01T00:23:33.669Z,42.86
2022-08-01T00:24:33.657Z,43.02
2022-08-01T00:25:34.695Z,42.70
2022-08-01T00:26:33.669Z,43.02
2022-08-01T00:27:33.657Z,42.22
2022-08-01T00:28:33.637Z,41.89
2022-08-01T00:30:10.037Z,44.47
2022-08-01T00:30:34.631Z,42.54
2022-08-01T00:31:33.626Z,41.41
2022-08-01T00:32:33.626Z,42.54
2022-08-01T00:33:33.613Z,41.89
2022-08-01T00:34:33.657Z,41.89
2022-08-01T00:35:33.593Z,50.27
2022-08-01T00:36:33.581Z,43.83
2022-08-01T00:37:33.619Z,45.12
2022-08-01T00:38:33.594Z,44.47
2022-08-01T00:39:33.573Z,43.67
2022-08-01T00:40:33.570Z,43.02
2022-08-01T00:41:33.558Z,42.38
2022-08-01T00:42:33.593Z,41.25
2022-08-01T00:43:33.538Z,42.06
2022-08-01T00:44:33.537Z,42.22
2022-08-01T00:45:33.565Z,43.02
2022-08-01T00:46:33.569Z,41.73
2022-08-01T00:47:33.540Z,41.57
2022-08-01T00:48:33.545Z,42.22
2022-08-01T00:49:33.565Z,42.86
2022-08-01T00:50:33.557Z,42.38
2022-08-01T00:51:33.504Z,42.22
2022-08-01T00:52:33.499Z,42.54
2022-08-01T00:53:38.765Z,43.51
2022-08-01T00:54:34.486Z,41.89
2022-08-01T00:55:33.492Z,41.89
2022-08-01T00:56:33.480Z,42.70
2022-08-01T00:58:02.812Z,41.73
2022-08-01T00:58:34.447Z,44.15
2022-08-01T00:59:34.492Z,41.89
2022-08-01T01:00:34.522Z,41.41
2022-08-01T01:01:39.555Z,41.73
2022-08-01T01:02:34.463Z,42.22
2022-08-01T01:03:57.379Z,41.89
2022-08-01T01:04:35.427Z,42.22
2022-08-01T01:05:37.324Z,41.73
2022-08-01T01:06:34.432Z,41.41
2022-08-01T01:07:33.416Z,42.06
2022-08-01T01:08:33.471Z,42.22
2022-08-01T01:09:33.391Z,42.38
2022-08-01T01:10:33.382Z,41.57
2022-08-01T01:11:33.408Z,41.41
2022-08-01T01:12:38.295Z,43.51
2022-08-01T01:13:35.399Z,42.22
2022-08-01T01:14:34.376Z,41.89
2022-08-01T01:15:33.359Z,41.89
2022-08-01T01:16:33.345Z,44.47
2022-08-01T01:17:51.304Z,43.34
2022-08-01T01:18:34.363Z,43.67
2022-08-01T01:19:33.329Z,42.54
2022-08-01T01:20:33.335Z,42.22
2022-08-01T01:21:33.331Z,41.73
2022-08-01T01:22:33.315Z,41.73
2022-08-01T01:23:33.333Z,41.73
2022-08-01T01:24:33.310Z,42.54
2022-08-01T01:25:33.301Z,42.06
2022-08-01T01:26:33.291Z,41.73
2022-08-01T01:27:33.284Z,41.73
2022-08-01T01:28:33.287Z,44.15
2022-08-01T01:29:59.932Z,42.06
2022-08-01T01:30:34.260Z,41.89
2022-08-01T01:31:33.283Z,41.41
2022-08-01T01:32:33.265Z,41.25
2022-08-01T01:33:33.278Z,41.89
2022-08-01T01:34:33.243Z,43.99
2022-08-01T01:35:33.238Z,41.73
2022-08-01T01:36:33.232Z,42.38
2022-08-01T01:37:33.222Z,42.06
2022-08-01T01:38:33.258Z,41.57
2022-08-01T01:39:33.218Z,44.63
2022-08-01T01:40:33.219Z,48.66
2022-08-01T01:41:33.209Z,41.09
2022-08-01T01:42:33.193Z,41.57
2022-08-01T01:43:33.755Z,42.54
2022-08-01T01:44:33.197Z,42.86
2022-08-01T01:45:33.169Z,43.02
2022-08-01T01:46:33.169Z,42.86
2022-08-01T01:47:33.170Z,44.47
2022-08-01T01:48:33.166Z,41.73
2022-08-01T01:49:33.274Z,41.73
2022-08-01T01:50:33.149Z,42.38
2022-08-01T01:51:33.146Z,41.57
2022-08-01T01:52:33.138Z,41.25
2022-08-01T01:53:33.138Z,41.73
2022-08-01T01:54:33.146Z,46.41
2022-08-01T01:55:33.122Z,42.06
2022-08-01T01:56:34.137Z,41.09
2022-08-01T01:57:33.111Z,41.89
2022-08-01T01:58:33.150Z,42.38
2022-08-01T01:59:33.098Z,42.22
2022-08-01T02:00:33.092Z,41.57
2022-08-01T02:02:05.410Z,41.41
2022-08-01T02:02:34.106Z,41.41
2022-08-01T02:03:33.081Z,42.22
2022-08-01T02:04:33.067Z,41.57
2022-08-01T02:05:33.068Z,41.89
2022-08-01T02:06:33.055Z,41.73
2022-08-01T02:07:33.062Z,41.89
2022-08-01T02:08:33.040Z,41.89
2022-08-01T02:09:33.053Z,42.86
2022-08-01T02:10:33.053Z,44.47
2022-08-01T02:11:33.061Z,41.89
2022-08-01T02:12:33.028Z,42.54
2022-08-01T02:13:33.032Z,44.79
2022-08-01T02:14:33.013Z,41.25
2022-08-01T02:15:33.013Z,43.83
2022-08-01T02:16:32.993Z,43.34
2022-08-01T02:17:33.013Z,42.86
2022-08-01T02:18:32.989Z,43.02
2022-08-01T02:19:32.985Z,43.99
2022-08-01T02:20:32.980Z,45.44
2022-08-01T02:21:32.965Z,44.15
2022-08-01T02:22:32.973Z,43.34
2022-08-01T02:23:32.978Z,43.51
2022-08-01T02:24:32.970Z,41.73
2022-08-01T02:25:32.946Z,45.44
2022-08-01T02:26:33.930Z,42.38
2022-08-01T02:27:32.930Z,41.73
2022-08-01T02:28:32.924Z,43.02
2022-08-01T02:29:32.926Z,52.37
2022-08-01T02:30:32.934Z,42.38
2022-08-01T02:31:32.916Z,41.89
2022-08-01T02:32:32.922Z,44.96
2022-08-01T02:33:32.907Z,55.11
2022-08-01T02:34:32.896Z,46.41
2022-08-01T02:35:32.910Z,42.86
2022-08-01T02:36:33.568Z,42.86
2022-08-01T02:37:33.880Z,44.79
2022-08-01T02:38:32.868Z,43.34
2022-08-01T02:39:32.870Z,42.70
2022-08-01T02:40:32.859Z,44.63
2022-08-01T02:41:32.854Z,43.99
2022-08-01T02:42:32.861Z,46.57
2022-08-01T02:43:32.833Z,45.12
2022-08-01T02:44:32.897Z,43.83
2022-08-01T02:45:32.826Z,47.86
2022-08-01T02:46:32.825Z,45.92
2022-08-01T02:47:32.805Z,41.89
2022-08-01T02:48:32.817Z,43.83
2022-08-01T02:49:32.859Z,46.25
2022-08-01T02:50:32.813Z,49.47
2022-08-01T02:51:32.781Z,45.76
2022-08-01T02:52:32.785Z,44.96
2022-08-01T02:53:43.737Z,42.70
2022-08-01T02:54:33.777Z,43.99
2022-08-01T02:55:32.774Z,42.86
2022-08-01T02:56:32.815Z,50.92
2022-08-01T02:57:50.661Z,48.98
2022-08-01T02:58:34.745Z,46.08
2022-08-01T02:59:32.757Z,59.14
2022-08-01T03:00:32.732Z,43.83
2022-08-01T03:01:32.819Z,42.54
2022-08-01T03:02:32.725Z,43.18
2022-08-01T03:03:32.717Z,44.79
2022-08-01T03:04:32.728Z,45.92
2022-08-01T03:05:32.759Z,52.85
2022-08-01T03:06:32.713Z,45.12
2022-08-01T03:07:34.278Z,42.22
2022-08-01T03:08:32.676Z,48.82
2022-08-01T03:09:32.676Z,47.21
2022-08-01T03:10:32.695Z,49.63
2022-08-01T03:11:32.669Z,45.12
2022-08-01T03:12:32.675Z,47.70
2022-08-01T03:13:33.170Z,46.73
2022-08-01T03:14:32.645Z,53.01
2022-08-01T03:15:32.649Z,43.67
2022-08-01T03:16:32.629Z,49.95
2022-08-01T03:17:32.677Z,47.37
2022-08-01T03:18:32.633Z,64.13
2022-08-01T03:19:32.637Z,48.66
2022-08-01T03:20:32.609Z,64.13
2022-08-01T03:21:32.608Z,48.98
2022-08-01T03:22:32.601Z,53.01
2022-08-01T03:23:37.774Z,52.85
2022-08-01T03:24:33.585Z,45.76
2022-08-01T03:25:32.589Z,48.50
2022-08-01T03:26:32.589Z,54.30
2022-08-01T03:27:32.594Z,64.29
2022-08-01T03:28:32.568Z,60.26
2022-08-01T03:29:32.551Z,55.43
2022-08-01T03:30:32.557Z,52.85
2022-08-01T03:31:32.539Z,53.17
2022-08-01T03:32:32.529Z,62.52
2022-08-01T03:33:32.553Z,53.82
2022-08-01T03:34:32.516Z,49.15
2022-08-01T03:35:32.520Z,48.98
2022-08-01T03:36:32.492Z,51.24
2022-08-01T03:37:33.532Z,47.37
2022-08-01T03:38:32.529Z,49.15
2022-08-01T03:39:32.501Z,57.52
2022-08-01T03:40:32.480Z,65.42
2022-08-01T03:41:32.513Z,51.56
2022-08-01T03:42:32.471Z,49.15
2022-08-01T03:43:32.470Z,54.95
2022-08-01T03:44:32.480Z,55.43
2022-08-01T03:45:32.467Z,51.08
2022-08-01T03:46:32.444Z,49.47
2022-08-01T03:47:32.445Z,49.79
2022-08-01T03:48:32.517Z,50.76
2022-08-01T03:49:32.509Z,56.07
2022-08-01T03:50:32.429Z,48.98
2022-08-01T03:51:32.452Z,52.21
2022-08-01T03:52:32.401Z,58.97
2022-08-01T03:53:32.406Z,58.97
2022-08-01T03:54:32.387Z,54.62
2022-08-01T03:55:32.397Z,52.21
2022-08-01T03:56:32.417Z,61.07
2022-08-01T03:57:35.630Z,48.98
2022-08-01T03:58:32.357Z,52.37
2022-08-01T03:59:32.361Z,52.05
2022-08-01T04:00:32.370Z,51.88
2022-08-01T04:01:32.396Z,57.69
2022-08-01T04:02:32.336Z,50.76
2022-08-01T04:03:32.357Z,50.43
2022-08-01T04:04:33.324Z,49.95
2022-08-01T04:05:32.329Z,63.00
2022-08-01T04:06:32.320Z,56.56
2022-08-01T04:07:32.305Z,50.11
2022-08-01T04:08:32.319Z,61.87
2022-08-01T04:09:32.296Z,60.91
2022-08-01T04:10:32.308Z,53.66
2022-08-01T04:11:32.308Z,58.97
2022-08-01T04:12:32.284Z,53.50
2022-08-01T04:13:37.095Z,66.55
2022-08-01T04:14:33.268Z,51.08
2022-08-01T04:15:32.283Z,52.37
2022-08-01T04:16:32.252Z,56.07
2022-08-01T04:17:32.257Z,55.43
2022-08-01T04:18:32.289Z,64.94
2022-08-01T04:19:32.239Z,53.98
2022-08-01T04:20:32.236Z,60.26
2022-08-01T04:21:32.266Z,50.27
2022-08-01T04:22:32.221Z,59.14
2022-08-01T04:23:33.214Z,57.20
2022-08-01T04:24:32.208Z,58.17
2022-08-01T04:25:32.212Z,56.24
2022-08-01T04:26:32.201Z,51.08
2022-08-01T04:27:49.743Z,52.53
2022-08-01T04:28:33.184Z,55.11
2022-08-01T04:29:32.171Z,54.30
2022-08-01T04:30:32.180Z,57.69
2022-08-01T04:31:32.220Z,53.17
2022-08-01T04:32:32.156Z,52.05
2022-08-01T04:33:32.142Z,54.46
2022-08-01T04:34:32.150Z,58.01
2022-08-01T04:36:01.417Z,53.98
2022-08-01T04:36:33.120Z,54.46
2022-08-01T04:37:32.137Z,53.50
2022-08-01T04:38:32.139Z,56.07
2022-08-01T04:39:32.110Z,55.75
2022-08-01T04:40:32.092Z,55.91
2022-08-01T04:41:32.111Z,56.07
2022-08-01T04:42:33.322Z,53.01
2022-08-01T04:43:32.106Z,60.26
2022-08-01T04:44:32.775Z,66.06
2022-08-01T04:45:33.072Z,60.26
2022-08-01T04:46:32.056Z,62.52
2022-08-01T04:47:33.076Z,66.87
2022-08-01T04:48:32.069Z,60.75
2022-08-01T04:49:32.111Z,63.33
2022-08-01T04:50:33.063Z,55.11
2022-08-01T04:51:32.048Z,58.33
2022-08-01T04:52:32.022Z,57.69
2022-08-01T04:53:32.008Z,47.53
2022-08-01T04:54:33.030Z,51.08
2022-08-01T04:55:32.038Z,57.04
2022-08-01T04:56:32.020Z,61.07
2022-08-01T04:57:32.005Z,51.56
2022-08-01T04:58:32.053Z,57.36
2022-08-01T04:59:31.981Z,50.11
2022-08-01T05:00:31.978Z,48.98
2022-08-01T05:01:32.047Z,46.25
2022-08-01T05:02:31.956Z,66.39
2022-08-01T05:03:35.840Z,49.47
2022-08-01T05:04:32.957Z,49.15
2022-08-01T05:05:31.957Z,45.28
2022-08-01T05:06:31.948Z,50.60
2022-08-01T05:07:31.964Z,56.56
2022-08-01T05:08:32.929Z,57.85
2022-08-01T05:09:31.940Z,56.88
2022-08-01T05:10:31.912Z,61.55
2022-08-01T05:11:31.948Z,51.08
2022-08-01T05:12:31.912Z,57.04
2022-08-01T05:13:31.904Z,59.94
2022-08-01T05:14:31.904Z,51.56
2022-08-01T05:15:31.897Z,51.56
2022-08-01T05:16:31.892Z,65.58
2022-08-01T05:17:31.876Z,62.20
2022-08-01T05:18:31.889Z,59.14
2022-08-01T05:19:31.868Z,61.55
2022-08-01T05:20:31.859Z,59.78
2022-08-01T05:21:31.853Z,59.30
2022-08-01T05:22:31.845Z,62.04
2022-08-01T05:23:43.094Z,53.66
2022-08-01T05:24:32.931Z,56.40
2022-08-01T05:25:57.349Z,53.82
2022-08-01T05:26:32.817Z,66.39
2022-08-01T05:27:31.817Z,52.85
2022-08-01T05:28:31.872Z,65.90
2022-08-01T05:29:31.789Z,59.30
2022-08-01T05:30:31.833Z,65.10
2022-08-01T05:31:31.781Z,62.68
2022-08-01T05:32:31.785Z,61.39
2022-08-01T05:33:31.792Z,57.69
2022-08-01T05:34:31.793Z,53.50
2022-08-01T05:35:48.064Z,62.84
2022-08-01T05:36:32.840Z,66.23
2022-08-01T05:37:31.751Z,61.39
2022-08-01T05:38:31.747Z,66.55
2022-08-01T05:39:31.768Z,58.33
2022-08-01T05:40:31.731Z,54.95
2022-08-01T05:41:31.761Z,55.59
2022-08-01T05:42:31.722Z,59.78
2022-08-01T05:43:31.724Z,52.85
2022-08-01T05:44:31.751Z,60.75
2022-08-01T05:45:31.699Z,64.29
2022-08-01T05:46:32.920Z,60.75
2022-08-01T05:47:31.688Z,60.26
2022-08-01T05:48:31.704Z,64.45
2022-08-01T05:49:31.780Z,56.56
2022-08-01T05:50:31.667Z,46.89
2022-08-01T05:51:31.668Z,68.48
2022-08-01T05:52:31.663Z,51.88
2022-08-01T05:53:31.659Z,56.07
2022-08-01T05:54:31.671Z,58.33
2022-08-01T05:55:31.664Z,50.27
2022-08-01T05:56:32.457Z,50.27
2022-08-01T05:57:32.638Z,59.46
2022-08-01T05:58:31.627Z,59.46
2022-08-01T05:59:31.634Z,57.20
2022-08-01T06:01:05.214Z,58.33
2022-08-01T06:01:31.618Z,53.98
2022-08-01T06:02:31.627Z,52.85
2022-08-01T06:03:31.607Z,60.42
2022-08-01T06:04:31.604Z,58.17
2022-08-01T06:05:31.603Z,56.56
2022-08-01T06:06:31.656Z,57.52
2022-08-01T06:07:31.592Z,58.81
2022-08-01T06:08:31.576Z,65.90
2022-08-01T06:09:31.571Z,52.05
2022-08-01T06:10:32.191Z,62.04
2022-08-01T06:11:31.605Z,60.75
2022-08-01T06:12:35.484Z,64.13
2022-08-01T06:13:32.633Z,57.85
2022-08-01T06:14:32.518Z,62.36
2022-08-01T06:15:32.371Z,53.17
2022-08-01T06:16:31.505Z,68.48
2022-08-01T06:17:31.559Z,63.81
2022-08-01T06:18:31.515Z,56.40
2022-08-01T06:19:31.511Z,58.01
2022-08-01T06:20:31.507Z,64.45
2022-08-01T06:21:31.491Z,57.85
2022-08-01T06:22:31.541Z,61.55
2022-08-01T06:23:32.625Z,67.35
2022-08-01T06:24:32.235Z,53.33
2022-08-01T06:25:31.687Z,61.23
2022-08-01T06:26:31.501Z,48.50
2022-08-01T06:27:31.522Z,65.74
2022-08-01T06:28:31.458Z,58.65
2022-08-01T06:29:31.468Z,64.61
2022-08-01T06:30:31.498Z,51.56
2022-08-01T06:31:33.769Z,55.75
2022-08-01T06:32:32.430Z,51.24
2022-08-01T06:33:31.468Z,49.47
2022-08-01T06:34:31.475Z,58.01
2022-08-01T06:35:31.439Z,61.07
2022-08-01T06:36:31.417Z,65.58
2022-08-01T06:37:31.445Z,60.42
2022-08-01T06:38:31.402Z,57.85
2022-08-01T06:39:31.386Z,56.24
2022-08-01T06:40:31.389Z,60.26
2022-08-01T06:41:31.417Z,50.27
2022-08-01T06:42:31.399Z,59.30
2022-08-01T06:43:31.393Z,61.55
2022-08-01T06:44:31.366Z,64.61
2022-08-01T06:45:31.367Z,60.91
2022-08-01T06:46:32.642Z,63.97
2022-08-01T06:47:31.367Z,64.45
2022-08-01T06:48:31.332Z,54.14
2022-08-01T06:49:31.397Z,58.97
2022-08-01T06:50:31.323Z,59.62
2022-08-01T06:51:31.335Z,56.88
2022-08-01T06:52:31.344Z,66.39
2022-08-01T06:53:36.293Z,58.81
2022-08-01T06:54:33.366Z,61.87
2022-08-01T06:55:31.311Z,60.75
2022-08-01T06:56:31.380Z,68.64
2022-08-01T06:57:31.286Z,58.49
2022-08-01T06:58:31.794Z,63.16
2022-08-01T06:59:31.277Z,53.01
2022-08-01T07:00:31.314Z,66.06
2022-08-01T07:01:34.349Z,66.87
2022-08-01T07:02:31.269Z,65.42
2022-08-01T07:03:53.954Z,53.33
2022-08-01T07:04:32.229Z,63.97
2022-08-01T07:05:31.266Z,58.97
2022-08-01T07:06:32.302Z,56.40
2022-08-01T07:07:31.241Z,48.02
2022-08-01T07:08:31.209Z,59.30
2022-08-01T07:09:31.210Z,62.20
2022-08-01T07:10:31.206Z,60.10
2022-08-01T07:11:31.206Z,58.49
2022-08-01T07:12:31.266Z,48.50
2022-08-01T07:13:43.953Z,47.37
2022-08-01T07:14:32.182Z,50.11
2022-08-01T07:15:31.182Z,51.24
2022-08-01T07:16:32.234Z,50.76
2022-08-01T07:17:31.187Z,58.01
2022-08-01T07:18:31.192Z,64.94
2022-08-01T07:19:31.242Z,51.72
2022-08-01T07:20:34.905Z,60.59
2022-08-01T07:21:39.850Z,64.61
2022-08-01T07:22:32.158Z,54.79
2022-08-01T07:23:34.115Z,62.36
2022-08-01T07:24:31.119Z,65.42
2022-08-01T07:25:31.128Z,63.97
2022-08-01T07:26:31.119Z,65.90
2022-08-01T07:27:31.125Z,54.30
2022-08-01T07:28:31.110Z,49.47
2022-08-01T07:29:31.089Z,49.79
2022-08-01T07:30:31.099Z,51.88
2022-08-01T07:31:32.452Z,56.88
2022-08-01T07:32:32.084Z,61.23
2022-08-01T07:33:48.362Z,62.20
2022-08-01T07:34:32.036Z,62.04
2022-08-01T07:35:31.114Z,60.42
2022-08-01T07:36:31.038Z,52.85
2022-08-01T07:37:48.398Z,54.14
2022-08-01T07:38:32.034Z,55.75
2022-08-01T07:39:31.112Z,68.16
2022-08-01T07:40:32.079Z,60.91
2022-08-01T07:41:53.069Z,60.26
2022-08-01T07:42:31.998Z,59.94
2022-08-01T07:43:30.995Z,53.01
2022-08-01T07:44:31.012Z,58.01
2022-08-01T07:45:30.966Z,56.72
2022-08-01T07:46:30.961Z,61.87
2022-08-01T07:47:30.959Z,59.14
2022-08-01T07:48:30.962Z,55.43
2022-08-01T07:49:32.992Z,66.39
2022-08-01T07:50:33.604Z,55.27
2022-08-01T07:51:31.010Z,62.68
2022-08-01T07:52:30.925Z,56.24
2022-08-01T07:53:30.964Z,65.10
2022-08-01T07:54:33.072Z,52.37
2022-08-01T07:55:30.935Z,64.29
2022-08-01T07:56:30.891Z,56.40
2022-08-01T07:57:30.878Z,58.01
2022-08-01T07:58:30.904Z,59.46
2022-08-01T07:59:30.939Z,57.36
2022-08-01T08:00:30.865Z,59.46
2022-08-01T08:01:30.927Z,64.13
2022-08-01T08:02:30.951Z,58.97
2022-08-01T08:03:30.828Z,63.00
2022-08-01T08:04:30.858Z,53.50
2022-08-01T08:05:57.730Z,61.55
2022-08-01T08:06:31.819Z,55.27
2022-08-01T08:07:30.806Z,51.40
2022-08-01T08:08:30.798Z,58.65
2022-08-01T08:09:30.802Z,67.03
2022-08-01T08:10:31.790Z,61.55
2022-08-01T08:11:30.802Z,54.14
2022-08-01T08:12:30.806Z,61.23
2022-08-01T08:13:30.761Z,65.90
2022-08-01T08:14:32.430Z,65.10
2022-08-01T08:15:30.753Z,59.30
2022-08-01T08:16:30.769Z,59.78
2022-08-01T08:17:36.116Z,62.84
2022-08-01T08:18:31.753Z,66.06
2022-08-01T08:19:38.392Z,56.72
2022-08-01T08:20:31.734Z,68.00
2022-08-01T08:21:30.713Z,64.29
2022-08-01T08:22:30.709Z,65.42
2022-08-01T08:23:41.809Z,66.55
2022-08-01T08:24:31.767Z,68.48
2022-08-01T08:25:30.716Z,65.10
2022-08-01T08:26:30.674Z,57.20
2022-08-01T08:27:30.659Z,60.42
2022-08-01T08:28:30.688Z,65.90
2022-08-01T08:29:30.690Z,66.87
2022-08-01T08:30:30.661Z,63.65
2022-08-01T08:31:51.871Z,61.07
2022-08-01T08:32:31.624Z,65.42
2022-08-01T08:33:30.652Z,65.74
2022-08-01T08:34:30.635Z,60.42
2022-08-01T08:35:40.495Z,53.01
2022-08-01T08:36:31.764Z,59.78
2022-08-01T08:37:31.404Z,57.36
2022-08-01T08:38:31.626Z,58.49
2022-08-01T08:39:30.629Z,63.65
2022-08-01T08:40:30.631Z,58.97
2022-08-01T08:41:37.020Z,63.65
2022-08-01T08:42:31.600Z,62.20
2022-08-01T08:43:30.558Z,67.84
2022-08-01T08:44:30.615Z,69.61
2022-08-01T08:45:56.247Z,61.23
2022-08-01T08:46:31.535Z,65.42
2022-08-01T08:47:30.522Z,65.58
2022-08-01T08:48:30.564Z,63.81
2022-08-01T08:49:35.412Z,66.87
2022-08-01T08:50:31.511Z,58.17
2022-08-01T08:51:30.538Z,55.11
2022-08-01T08:52:30.522Z,66.87
2022-08-01T08:53:34.921Z,67.03
2022-08-01T08:54:31.501Z,54.79
2022-08-01T08:55:30.477Z,56.40
2022-08-01T08:56:30.534Z,53.82
2022-08-01T08:57:30.473Z,61.23
2022-08-01T08:58:31.918Z,60.26
2022-08-01T08:59:30.498Z,62.52
2022-08-01T09:00:30.474Z,54.95
2022-08-01T09:01:30.437Z,61.55
2022-08-01T09:02:30.433Z,62.36
2022-08-01T09:03:30.557Z,56.07
2022-08-01T09:04:30.434Z,50.27
2022-08-01T09:05:38.912Z,63.33
2022-08-01T09:06:31.401Z,52.37
2022-08-01T09:07:30.483Z,49.95
2022-08-01T09:08:30.399Z,68.64
2022-08-01T09:09:30.406Z,60.75
2022-08-01T09:10:30.377Z,63.33
2022-08-01T09:11:30.394Z,61.39
2022-08-01T09:12:30.386Z,68.16
2022-08-01T09:13:30.355Z,62.04
2022-08-01T09:14:30.370Z,51.88
2022-08-01T09:15:33.830Z,60.59
2022-08-01T09:16:30.556Z,53.17
2022-08-01T09:17:30.348Z,60.10
2022-08-01T09:18:30.376Z,64.94
2022-08-01T09:19:39.614Z,65.90
2022-08-01T09:20:31.338Z,63.16
2022-08-01T09:21:30.317Z,63.81
2022-08-01T09:22:30.308Z,65.10
2022-08-01T09:23:30.313Z,57.85
2022-08-01T09:24:30.497Z,61.55
2022-08-01T09:25:30.320Z,48.82
2022-08-01T09:26:31.306Z,59.14
2022-08-01T09:27:30.306Z,63.16
2022-08-01T09:28:30.275Z,63.65
2022-08-01T09:29:37.377Z,53.98
2022-08-01T09:30:31.355Z,56.24
2022-08-01T09:31:38.213Z,68.32
2022-08-01T09:32:36.276Z,63.16
2022-08-01T09:33:34.923Z,57.69
2022-08-01T09:34:32.247Z,58.01
2022-08-01T09:35:32.074Z,53.01
2022-08-01T09:36:31.573Z,63.16
2022-08-01T09:37:37.555Z,65.58
2022-08-01T09:38:32.227Z,65.90
2022-08-01T09:39:30.209Z,66.06
2022-08-01T09:40:30.205Z,68.00
2022-08-01T09:41:37.470Z,56.40
2022-08-01T09:42:31.203Z,63.81
2022-08-01T09:43:31.413Z,63.65
2022-08-01T09:44:42.365Z,59.46
2022-08-01T09:45:41.563Z,67.19
2022-08-01T09:46:31.197Z,63.81
2022-08-01T09:47:30.141Z,64.61
2022-08-01T09:48:30.350Z,63.81
2022-08-01T09:49:51.984Z,52.85
2022-08-01T09:50:31.152Z,53.50
2022-08-01T09:51:59.016Z,63.16
2022-08-01T09:52:31.179Z,60.42
2022-08-01T09:53:31.158Z,66.39
2022-08-01T09:54:31.156Z,63.65
2022-08-01T09:55:30.102Z,58.33
2022-08-01T09:56:30.126Z,65.58
2022-08-01T09:57:30.100Z,55.59
2022-08-01T09:58:30.095Z,60.59
2022-08-01T09:59:36.199Z,56.07
2022-08-01T10:00:44.827Z,57.52
2022-08-01T10:01:37.274Z,64.94
2022-08-01T10:02:31.071Z,64.13
2022-08-01T10:03:30.227Z,51.24
2022-08-01T10:04:30.120Z,67.35
2022-08-01T10:05:30.094Z,68.16
2022-08-01T10:06:31.064Z,65.42
2022-08-01T10:07:43.236Z,63.16
2022-08-01T10:08:31.077Z,63.65
2022-08-01T10:09:40.317Z,61.23
2022-08-01T10:10:31.554Z,65.10
2022-08-01T10:11:36.577Z,57.36
2022-08-01T10:12:31.064Z,63.65
2022-08-01T10:13:36.351Z,66.39
2022-08-01T10:14:31.036Z,68.32
2022-08-01T10:15:37.091Z,58.65
2022-08-01T10:16:31.031Z,69.93
2022-08-01T10:17:51.024Z,69.93
2022-08-01T10:18:31.038Z,68.96
2022-08-01T10:19:30.028Z,67.51
2022-08-01T10:20:31.189Z,57.36
2022-08-01T10:21:56.407Z,66.87
2022-08-01T10:22:30.971Z,64.61
2022-08-01T10:23:40.592Z,65.10
2022-08-01T10:24:30.971Z,64.45
2022-08-01T10:25:42.759Z,53.66
2022-08-01T10:26:30.976Z,60.91
2022-08-01T10:27:38.053Z,63.49
2022-08-01T10:28:30.930Z,60.42
2022-08-01T10:29:59.765Z,66.55
2022-08-01T10:30:30.948Z,66.87
2022-08-01T10:31:30.848Z,63.97
2022-08-01T10:32:29.926Z,65.90
2022-08-01T10:33:52.724Z,59.78
2022-08-01T10:34:30.947Z,65.90
2022-08-01T10:35:47.222Z,62.04
2022-08-01T10:36:30.915Z,56.72
2022-08-01T10:37:29.915Z,65.26
2022-08-01T10:38:29.908Z,65.74
2022-08-01T10:39:29.923Z,64.61
2022-08-01T10:40:31.323Z,68.00
2022-08-01T10:41:30.906Z,59.78
2022-08-01T10:42:29.918Z,63.65
2022-08-01T10:43:29.874Z,57.69
2022-08-01T10:44:29.891Z,56.72
2022-08-01T10:45:30.458Z,58.81
2022-08-01T10:46:29.856Z,63.65
2022-08-01T10:47:51.009Z,62.36
2022-08-01T10:48:30.864Z,63.33
2022-08-01T10:49:29.904Z,61.71
2022-08-01T10:50:29.847Z,61.55
2022-08-01T10:51:52.966Z,64.13
2022-08-01T10:52:30.818Z,62.52
2022-08-01T10:53:31.796Z,65.90
2022-08-01T10:54:30.795Z,66.39
2022-08-01T10:55:29.809Z,66.06
2022-08-01T10:56:29.837Z,68.00
2022-08-01T10:57:29.787Z,68.32
2022-08-01T10:58:29.797Z,66.23
2022-08-01T10:59:49.742Z,64.45
2022-08-01T11:00:30.870Z,62.20
2022-08-01T11:01:29.827Z,58.49
2022-08-01T11:02:31.721Z,62.68
2022-08-01T11:03:54.413Z,64.78
2022-08-01T11:04:31.755Z,65.10
2022-08-01T11:05:29.755Z,62.20
2022-08-01T11:06:29.799Z,58.01
2022-08-01T11:07:34.928Z,62.04
2022-08-01T11:08:30.815Z,52.37
2022-08-01T11:09:36.095Z,63.00
2022-08-01T11:10:30.747Z,61.39
2022-08-01T11:11:29.735Z,59.46
2022-08-01T11:12:30.719Z,62.68
2022-08-01T11:13:29.713Z,59.94
2022-08-01T11:14:53.671Z,61.55
2022-08-01T11:15:31.780Z,58.33
2022-08-01T11:16:30.705Z,65.58
2022-08-01T11:17:29.702Z,63.33
2022-08-01T11:18:31.135Z,67.51
2022-08-01T11:19:30.685Z,59.94
2022-08-01T11:20:29.686Z,62.68
2022-08-01T11:21:59.347Z,60.59
2022-08-01T11:22:30.653Z,62.84
2022-08-01T11:23:35.997Z,60.59
2022-08-01T11:24:30.666Z,65.42
2022-08-01T11:26:05.501Z,58.17
2022-08-01T11:26:30.653Z,59.62
2022-08-01T11:27:31.530Z,60.26
2022-08-01T11:28:34.605Z,65.74
2022-08-01T11:29:31.626Z,56.88
2022-08-01T11:30:29.617Z,58.01
2022-08-01T11:31:29.641Z,58.17
2022-08-01T11:32:31.195Z,61.55
2022-08-01T11:33:30.589Z,54.95
2022-08-01T11:34:29.770Z,65.10
2022-08-01T11:35:29.627Z,59.94
2022-08-01T11:36:57.703Z,58.65
2022-08-01T11:37:31.618Z,63.33
2022-08-01T11:38:29.566Z,62.52
2022-08-01T11:39:29.760Z,64.13
2022-08-01T11:40:29.665Z,68.80
2022-08-01T11:41:37.543Z,63.00
2022-08-01T11:42:30.572Z,68.48
2022-08-01T11:43:29.578Z,63.49
2022-08-01T11:44:30.493Z,55.27
2022-08-01T11:45:29.536Z,58.49
2022-08-01T11:46:29.532Z,64.29
2022-08-01T11:47:29.848Z,58.01
2022-08-01T11:48:31.211Z,66.87
2022-08-01T11:49:29.748Z,65.74
2022-08-01T11:50:29.521Z,60.59
2022-08-01T11:51:29.559Z,47.70
2022-08-01T11:52:29.509Z,50.27
2022-08-01T11:53:29.523Z,60.59
2022-08-01T11:54:35.230Z,63.97
2022-08-01T11:55:31.346Z,62.68
2022-08-01T11:56:29.487Z,57.52
2022-08-01T11:57:34.083Z,64.29
2022-08-01T11:58:31.352Z,63.16
2022-08-01T11:59:37.884Z,58.97
2022-08-01T12:00:30.554Z,60.91
2022-08-01T12:01:29.470Z,59.14
2022-08-01T12:02:30.197Z,55.91
2022-08-01T12:03:33.513Z,63.65
2022-08-01T12:04:29.467Z,63.16
2022-08-01T12:05:29.472Z,67.51
2022-08-01T12:06:29.455Z,65.42
2022-08-01T12:07:29.467Z,63.65
2022-08-01T12:08:29.435Z,53.66
2022-08-01T12:09:29.446Z,65.42
2022-08-01T12:10:29.462Z,62.04
2022-08-01T12:11:32.453Z,62.84
2022-08-01T12:12:30.419Z,66.06
2022-08-01T12:13:29.447Z,55.91
2022-08-01T12:14:29.464Z,63.16
2022-08-01T12:15:29.432Z,58.33
2022-08-01T12:16:33.164Z,63.65
2022-08-01T12:17:29.403Z,52.05
2022-08-01T12:18:29.407Z,59.14
2022-08-01T12:19:29.413Z,59.62
2022-08-01T12:20:31.389Z,62.04
2022-08-01T12:21:30.360Z,54.46
2022-08-01T12:22:29.365Z,62.36
2022-08-01T12:23:29.353Z,59.94
2022-08-01T12:24:29.351Z,59.94
2022-08-01T12:25:29.340Z,65.10
2022-08-01T12:26:31.979Z,60.91
2022-08-01T12:27:29.343Z,67.51
2022-08-01T12:28:29.311Z,67.51
2022-08-01T12:29:29.315Z,53.98
2022-08-01T12:30:29.298Z,67.03
2022-08-01T12:31:29.318Z,56.40
2022-08-01T12:32:35.334Z,66.87
2022-08-01T12:33:30.275Z,66.23
2022-08-01T12:34:29.275Z,65.58
2022-08-01T12:35:29.267Z,64.78
2022-08-01T12:36:29.297Z,53.33
2022-08-01T12:37:29.277Z,63.16
2022-08-01T12:38:29.249Z,63.33
2022-08-01T12:39:29.287Z,62.04
2022-08-01T12:40:29.275Z,65.58
2022-08-01T12:41:29.265Z,65.58
2022-08-01T12:42:29.277Z,64.61
2022-08-01T12:43:29.667Z,62.68
2022-08-01T12:44:30.240Z,68.80
2022-08-01T12:45:29.231Z,65.10
2022-08-01T12:46:29.255Z,69.77
2022-08-01T12:47:29.247Z,63.00
2022-08-01T12:48:29.267Z,64.13
2022-08-01T12:49:29.284Z,66.87
2022-08-01T12:50:29.237Z,64.61
2022-08-01T12:51:29.183Z,65.10
2022-08-01T12:52:30.229Z,65.42